Terminal Aerodrome Forecast
Issued by NWS

Home | Current Version | Previous Version | Text Only | Print | Product List | Glossary On
Versions: 1 2 3 4 5 6 7 8 9 10 11 12 13 14 15 16 17 18 19 20 21 22 23 24 25 26 27 28 29 30 31 32 33 34 35 36 37 38 39 40 41 42 43
000
FTUS44 KHGX 281140
TAFUTS
TAF
KUTS 281140Z 2812/0112 07006KT P6SM OVC090
     FM281500 06007KT P6SM BKN020 OVC030
     FM282100 07007KT P6SM SCT025 BKN050
     FM010200 08006KT 5SM BR VCSH BKN007 OVC015
     FM010600 00000KT 2SM BR OVC015
      TEMPO 0106/0109 1SM -DZ=

USA.gov is the U.S. government's official web portal to all federal, state and local government web resources and services.